Time;durP1;ratioP1;P1;durP2;ratioP2;P2;SDS_P1;SDS_P2;PMS_P1;PMS_P2;Temp;Humidity;BMP_temperature;BMP_pressure;BME280_temperature;BME280_humidity;BME280_pressure;Samples;Min_cycle;Max_cycle;Signal;HPM_P1;HPM_P2
2022/06/15 00:01:18;;;;;;;0.67;0.17;;;19.90;99.90;;;;;;5065063;28;20447;-70
2022/06/15 00:03:46;;;;;;;0.77;0.40;;;19.90;99.90;;;;;;5053333;28;20441;-70
2022/06/15 00:06:16;;;;;;;0.60;0.10;;;19.80;99.90;;;;;;5052534;28;20446;-70
2022/06/15 00:08:48;;;;;;;0.70;0.53;;;19.90;99.90;;;;;;5053058;28;20466;-72
2022/06/15 00:11:19;;;;;;;0.60;0.20;;;19.80;99.90;;;;;;5061202;28;20449;-71
2022/06/15 00:13:47;;;;;;;0.70;0.20;;;19.80;99.90;;;;;;5073108;28;20491;-70
2022/06/15 00:16:18;;;;;;;0.60;0.20;;;19.80;99.90;;;;;;5073255;28;20488;-73
2022/06/15 00:18:46;;;;;;;0.60;0.10;;;19.80;99.90;;;;;;5073923;28;20445;-69
2022/06/15 00:21:15;;;;;;;0.60;0.20;;;19.80;99.90;;;;;;5065365;28;20450;-69
2022/06/15 00:23:44;;;;;;;0.60;0.20;;;19.70;99.90;;;;;;5053462;28;20438;-72
2022/06/15 00:26:13;;;;;;;0.60;0.20;;;19.80;99.90;;;;;;5052242;28;20925;-70
2022/06/15 00:28:41;;;;;;;0.60;0.20;;;19.80;99.90;;;;;;5070799;28;20481;-70
2022/06/15 00:31:10;;;;;;;0.60;0.10;;;19.70;99.90;;;;;;5072133;28;20450;-70
2022/06/15 00:33:39;;;;;;;0.60;0.10;;;19.70;99.90;;;;;;5072395;28;20442;-70
2022/06/15 00:36:10;;;;;;;0.60;0.10;;;19.70;99.90;;;;;;5072164;28;20445;-69
2022/06/15 00:38:41;;;;;;;0.60;0.10;;;19.70;99.90;;;;;;5072386;28;20999;-71
2022/06/15 00:41:15;;;;;;;0.60;0.10;;;19.60;99.90;;;;;;5067702;28;20461;-71
2022/06/15 00:43:45;;;;;;;0.60;0.20;;;19.60;99.90;;;;;;5050598;28;20540;-70
2022/06/15 00:46:22;;;;;;;0.60;0.10;;;19.60;99.90;;;;;;5051010;28;20479;-70
2022/06/15 00:48:55;;;;;;;0.60;0.10;;;19.60;99.90;;;;;;5050451;28;20543;-71
2022/06/15 00:51:25;;;;;;;0.60;0.20;;;19.60;99.90;;;;;;5058146;28;20453;-70
2022/06/15 00:53:55;;;;;;;0.60;0.20;;;19.40;99.90;;;;;;5072228;28;20827;-70
2022/06/15 00:56:23;;;;;;;0.60;0.10;;;19.40;99.90;;;;;;5071663;28;20449;-71
2022/06/15 00:58:54;;;;;;;0.60;0.10;;;19.40;99.90;;;;;;5072232;28;20911;-71
2022/06/15 01:01:22;;;;;;;0.60;0.10;;;19.30;99.90;;;;;;5067415;28;20446;-70
2022/06/15 01:03:53;;;;;;;0.70;0.40;;;19.30;99.90;;;;;;5052530;28;20537;-71
2022/06/15 01:06:32;;;;;;;0.60;0.10;;;19.30;99.90;;;;;;5051280;28;20496;-71
2022/06/15 01:09:05;;;;;;;0.60;0.13;;;19.20;99.90;;;;;;5051637;28;20905;-70
2022/06/15 01:12:01;;;;;;;0.60;0.20;;;19.20;99.90;;;;;;5056246;28;20477;-70
2022/06/15 01:15:00;;;;;;;0.60;0.20;;;19.20;99.90;;;;;;5071812;28;20440;-70
2022/06/15 01:17:40;;;;;;;0.60;0.13;;;19.00;99.90;;;;;;5071349;28;20584;-70
2022/06/15 01:20:37;;;;;;;0.60;0.10;;;18.90;99.90;;;;;;5071780;28;20445;-70
2022/06/15 01:23:50;;;;;;;0.60;0.10;;;18.80;99.90;;;;;;5053023;28;20537;-71
2022/06/15 01:27:01;;;;;;;0.60;0.10;;;18.80;99.90;;;;;;5051024;28;20790;-70
2022/06/15 01:30:03;;;;;;;0.60;0.20;;;18.70;99.90;;;;;;5033841;28;20446;-71
2022/06/15 01:32:39;;;;;;;0.70;0.30;;;18.70;99.90;;;;;;5060455;28;20529;-71
2022/06/15 01:35:13;;;;;;;0.60;0.10;;;18.60;99.90;;;;;;5072035;28;20793;-71
2022/06/15 01:37:52;;;;;;;0.60;0.10;;;18.60;99.90;;;;;;5071680;28;20460;-71
2022/06/15 01:40:24;;;;;;;0.80;0.70;;;18.50;99.90;;;;;;5071904;28;20441;-70
2022/06/15 01:42:57;;;;;;;0.60;0.20;;;18.50;99.90;;;;;;5054876;28;20442;-70
2022/06/15 01:45:28;;;;;;;0.60;0.10;;;18.50;99.90;;;;;;5051688;28;20804;-71
2022/06/15 01:48:02;;;;;;;0.60;0.10;;;18.50;99.90;;;;;;5051035;28;20494;-70
2022/06/15 01:50:36;;;;;;;0.60;0.10;;;18.50;99.90;;;;;;5051872;28;20441;-70
2022/06/15 01:53:11;;;;;;;0.60;0.10;;;18.40;99.90;;;;;;5069839;28;20450;-72
2022/06/15 01:55:44;;;;;;;0.60;0.10;;;18.40;99.90;;;;;;5071426;28;20444;-71
2022/06/15 01:58:14;;;;;;;0.60;0.20;;;18.30;99.90;;;;;;5071278;28;20500;-70
2022/06/15 02:00:47;;;;;;;0.70;0.47;;;18.30;99.90;;;;;;5071996;28;20448;-71
2022/06/15 02:03:25;;;;;;;0.60;0.10;;;18.20;99.90;;;;;;5052685;28;20454;-72
2022/06/15 02:06:02;;;;;;;0.60;0.10;;;18.10;99.90;;;;;;5051881;28;20439;-71
2022/06/15 02:08:37;;;;;;;0.60;0.10;;;18.10;99.90;;;;;;5052013;28;20484;-71
2022/06/15 02:11:10;;;;;;;0.60;0.10;;;18.10;99.90;;;;;;5052537;28;20947;-71
2022/06/15 02:13:42;;;;;;;0.60;0.20;;;18.10;99.90;;;;;;5071742;28;20445;-71
2022/06/15 02:16:15;;;;;;;0.60;0.20;;;18.00;99.90;;;;;;5071126;28;20444;-70
2022/06/15 02:18:46;;;;;;;0.60;0.20;;;17.90;99.90;;;;;;5071583;28;20457;-71
2022/06/15 02:21:18;;;;;;;0.60;0.17;;;17.80;99.90;;;;;;5071122;28;20449;-71
2022/06/15 02:23:50;;;;;;;0.60;0.20;;;17.80;99.90;;;;;;5071732;28;20445;-71
2022/06/15 02:26:19;;;;;;;0.60;0.10;;;17.70;99.90;;;;;;5053425;28;20463;-71
2022/06/15 02:28:51;;;;;;;0.70;0.40;;;17.70;99.90;;;;;;5070618;28;20492;-72
2022/06/15 02:31:19;;;;;;;0.60;0.10;;;17.60;99.90;;;;;;5072823;28;20449;-70
2022/06/15 02:33:54;;;;;;;0.70;0.30;;;17.60;99.90;;;;;;5072852;28;20460;-70
2022/06/15 02:36:22;;;;;;;0.60;0.20;;;17.60;99.90;;;;;;5071320;28;20524;-69
2022/06/15 02:38:51;;;;;;;0.60;0.10;;;17.50;99.90;;;;;;5071672;28;20514;-70
2022/06/15 02:41:20;;;;;;;0.60;0.10;;;17.50;99.90;;;;;;5073350;28;20445;-69
2022/06/15 02:43:53;;;;;;;0.60;0.20;;;17.50;99.90;;;;;;5075595;28;20886;-70
2022/06/15 02:46:24;;;;;;;0.60;0.20;;;17.50;99.90;;;;;;5074076;28;20498;-70
2022/06/15 02:48:54;;;;;;;0.60;0.20;;;17.50;99.90;;;;;;5074685;28;20485;-70
2022/06/15 02:51:29;;;;;;;0.60;0.10;;;17.50;99.90;;;;;;5075325;28;20571;-70
2022/06/15 02:54:01;;;;;;;0.60;0.30;;;20.10;99.90;;;;;;5075136;28;20448;-69
2022/06/15 02:56:30;;;;;;;0.70;0.43;;;17.30;99.90;;;;;;5056789;28;20454;-70
2022/06/15 02:58:58;;;;;;;0.60;0.20;;;17.30;99.90;;;;;;5054507;28;20458;-70
2022/06/15 03:01:26;;;;;;;0.60;0.10;;;17.20;99.90;;;;;;5054578;28;20446;-71
2022/06/15 03:03:56;;;;;;;0.60;0.20;;;17.20;99.90;;;;;;5054987;28;20987;-70
2022/06/15 03:06:27;;;;;;;0.60;0.20;;;17.20;99.90;;;;;;5072967;28;20468;-72
2022/06/15 03:08:56;;;;;;;0.60;0.20;;;17.20;99.90;;;;;;5074911;28;20538;-71
2022/06/15 03:11:24;;;;;;;0.60;0.20;;;17.10;99.90;;;;;;5075093;28;20449;-70
2022/06/15 03:13:53;;;;;;;0.60;0.10;;;17.10;99.90;;;;;;5075696;28;21071;-71
2022/06/15 03:16:22;;;;;;;0.60;0.10;;;17.10;99.90;;;;;;5055810;28;20453;-71
2022/06/15 03:18:49;;;;;;;0.60;0.30;;;17.10;99.90;;;;;;5054407;28;20462;-72
2022/06/15 03:21:19;;;;;;;0.60;0.13;;;17.10;99.90;;;;;;5055832;28;20824;-71
2022/06/15 03:23:47;;;;;;;0.60;0.20;;;17.10;99.90;;;;;;5071672;28;20545;-70
2022/06/15 03:26:15;;;;;;;0.60;0.20;;;17.10;99.90;;;;;;5064714;28;20812;-70
2022/06/15 03:28:43;;;;;;;0.60;0.10;;;;;;;;;;5055506;28;20981;-70
2022/06/15 03:31:11;;;;;;;0.60;0.20;;;17.20;99.90;;;;;;5054678;28;20441;-69
2022/06/15 03:33:39;;;;;;;0.60;0.10;;;17.20;99.90;;;;;;5054197;28;20458;-70
2022/06/15 03:36:07;;;;;;;0.60;0.10;;;17.20;99.90;;;;;;5053890;28;20477;-71
2022/06/15 03:38:37;;;;;;;0.60;0.10;;;17.20;99.90;;;;;;5053723;28;20466;-71
2022/06/15 03:41:05;;;;;;;0.60;0.10;;;17.20;99.90;;;;;;5053786;28;20438;-72
2022/06/15 03:43:33;;;;;;;0.60;0.10;;;;;;;;;;5053828;28;20823;-72
2022/06/15 03:46:01;;;;;;;0.60;0.10;;;17.20;99.90;;;;;;5070434;28;20445;-71
2022/06/15 03:48:29;;;;;;;0.70;0.20;;;17.20;99.90;;;;;;5072985;28;20487;-71
2022/06/15 03:50:57;;;;;;;0.60;0.10;;;17.30;99.90;;;;;;5073650;28;20454;-70
2022/06/15 03:53:25;;;;;;;0.60;0.10;;;17.20;99.90;;;;;;5072665;28;20442;-71
2022/06/15 03:55:54;;;;;;;0.60;0.20;;;17.20;99.90;;;;;;5057135;28;20453;-70
2022/06/15 03:58:22;;;;;;;0.60;0.10;;;17.30;99.90;;;;;;5052878;28;20458;-70
2022/06/15 04:00:51;;;;;;;0.60;0.10;;;17.20;99.90;;;;;;5054344;28;20449;-70
2022/06/15 04:03:19;;;;;;;0.60;0.13;;;17.20;99.90;;;;;;5072761;28;20456;-69
2022/06/15 04:05:52;;;;;;;0.60;0.20;;;17.30;99.90;;;;;;5071973;28;20446;-69
2022/06/15 04:08:42;;;;;;;0.60;0.20;;;17.30;99.90;;;;;;5072472;28;20461;-68
2022/06/15 04:11:58;;;;;;;0.60;0.20;;;17.30;99.90;;;;;;5073456;28;20441;-70
2022/06/15 04:14:04;;;;;;;0.60;0.20;;;17.30;99.90;;;;;;5072441;28;20444;-71
2022/06/15 04:16:34;;;;;;;0.70;0.30;;;17.30;99.90;;;;;;5052756;28;20450;-71
2022/06/15 04:19:04;;;;;;;1.63;1.53;;;17.40;99.90;;;;;;5053256;28;21031;-71
2022/06/15 04:21:32;;;;;;;0.60;0.10;;;17.40;99.90;;;;;;5055679;28;20454;-70
2022/06/15 04:24:00;;;;;;;0.60;0.20;;;17.40;99.90;;;;;;5073036;28;20442;-71
2022/06/15 04:26:30;;;;;;;0.60;0.10;;;17.50;99.90;;;;;;5068993;28;20442;-70
2022/06/15 04:28:57;;;;;;;0.60;0.10;;;17.40;99.90;;;;;;5053353;28;20490;-71
2022/06/15 04:31:26;;;;;;;0.60;0.10;;;17.50;99.90;;;;;;5053536;28;20439;-72
2022/06/15 04:33:54;;;;;;;0.60;0.20;;;;;;;;;;5053061;28;20978;-71
2022/06/15 04:36:24;;;;;;;0.60;0.20;;;17.60;99.90;;;;;;5071997;28;20973;-70
2022/06/15 04:38:52;;;;;;;0.60;0.10;;;17.60;99.90;;;;;;5074654;28;20474;-72
2022/06/15 04:41:25;;;;;;;0.60;0.10;;;17.70;99.90;;;;;;5075221;28;20491;-70
2022/06/15 04:43:54;;;;;;;0.60;0.10;;;17.70;99.90;;;;;;5073628;28;20453;-72
2022/06/15 04:46:22;;;;;;;0.60;0.10;;;17.80;99.90;;;;;;5057829;28;20487;-70
2022/06/15 04:48:50;;;;;;;0.60;0.20;;;17.70;99.90;;;;;;5071469;28;20489;-70
2022/06/15 04:51:21;;;;;;;0.60;0.10;;;17.70;99.90;;;;;;5067224;28;20449;-71
2022/06/15 04:53:49;;;;;;;0.60;0.10;;;17.70;99.90;;;;;;5068099;28;20469;-70
2022/06/15 04:56:18;;;;;;;0.60;0.10;;;;;;;;;;5063536;28;20450;-71
2022/06/15 04:58:46;;;;;;;0.60;0.20;;;17.60;99.90;;;;;;5072932;28;20477;-71
2022/06/15 05:01:22;;;;;;;0.60;0.10;;;17.70;99.90;;;;;;5072133;28;20936;-71
2022/06/15 05:04:05;;;;;;;0.60;0.20;;;17.70;99.90;;;;;;5072770;28;20571;-70
2022/06/15 05:06:36;;;;;;;0.60;0.10;;;17.70;99.90;;;;;;5053784;28;20537;-70
2022/06/15 05:09:05;;;;;;;0.60;0.10;;;17.70;99.90;;;;;;5052935;28;20455;-73
2022/06/15 05:11:33;;;;;;;0.60;0.10;;;17.70;99.90;;;;;;5053004;28;20451;-70
2022/06/15 05:14:03;;;;;;;0.60;0.10;;;17.80;99.90;;;;;;5052003;28;20525;-71
2022/06/15 05:16:32;;;;;;;0.60;0.20;;;17.80;99.90;;;;;;5071011;28;20820;-71
2022/06/15 05:19:01;;;;;;;0.60;0.20;;;17.90;99.90;;;;;;5071629;28;20976;-72
2022/06/15 05:21:29;;;;;;;0.60;0.17;;;17.90;99.90;;;;;;5072005;28;20522;-69
2022/06/15 05:23:57;;;;;;;0.60;0.10;;;18.00;99.90;;;;;;5071757;28;20449;-71
2022/06/15 05:26:25;;;;;;;0.80;0.20;;;18.00;99.90;;;;;;5071573;28;20530;-70
2022/06/15 05:28:53;;;;;;;0.60;0.20;;;18.10;99.90;;;;;;5052137;28;20550;-70
2022/06/15 05:31:23;;;;;;;0.60;0.30;;;18.10;99.90;;;;;;5051805;28;20481;-70
2022/06/15 05:33:54;;;;;;;0.70;0.50;;;18.10;99.90;;;;;;5062744;28;20968;-70
2022/06/15 05:36:25;;;;;;;0.60;0.10;;;18.20;99.90;;;;;;5066087;28;20542;-71
2022/06/15 05:38:53;;;;;;;0.60;0.20;;;18.20;99.90;;;;;;5059377;28;20481;-71
2022/06/15 05:41:21;;;;;;;0.60;0.10;;;18.30;99.90;;;;;;5061485;28;20459;-72
2022/06/15 05:43:57;;;;;;;0.60;0.20;;;18.30;99.90;;;;;;5076343;28;20539;-78
2022/06/15 05:46:27;;;;;;;0.60;0.10;;;18.40;99.90;;;;;;5079150;28;20639;-78
2022/06/15 05:48:58;;;;;;;0.60;0.20;;;18.40;99.90;;;;;;5058410;28;20465;-77
2022/06/15 05:51:26;;;;;;;0.60;0.10;;;18.60;99.90;;;;;;5064413;28;20845;-75
2022/06/15 05:53:55;;;;;;;0.60;0.20;;;18.60;99.90;;;;;;5061067;28;20434;-76
2022/06/15 05:56:23;;;;;;;0.60;0.20;;;18.70;99.90;;;;;;5051062;28;20454;-74
2022/06/15 05:58:52;;;;;;;0.60;0.17;;;18.70;99.90;;;;;;5052158;28;20475;-74
2022/06/15 06:01:24;;;;;;;0.60;0.13;;;18.80;99.90;;;;;;5052917;28;20449;-76
2022/06/15 06:03:53;;;;;;;0.60;0.20;;;18.80;99.90;;;;;;5054024;28;20477;-75
2022/06/15 06:06:23;;;;;;;0.60;0.20;;;18.90;99.90;;;;;;5070220;28;20454;-75
2022/06/15 06:08:51;;;;;;;0.60;0.10;;;19.00;99.90;;;;;;5070549;28;20468;-75
2022/06/15 06:11:20;;;;;;;0.60;0.10;;;19.10;99.90;;;;;;5062931;28;20473;-72
2022/06/15 06:13:49;;;;;;;0.60;0.10;;;19.10;99.90;;;;;;5060475;28;20456;-74
2022/06/15 06:16:20;;;;;;;0.60;0.10;;;19.20;99.90;;;;;;5061187;28;20585;-73
2022/06/15 06:18:48;;;;;;;0.60;0.20;;;19.30;99.90;;;;;;5072435;28;20473;-75
2022/06/15 06:21:16;;;;;;;0.60;0.20;;;19.30;99.90;;;;;;5069830;28;20465;-73
2022/06/15 06:23:46;;;;;;;0.63;0.10;;;19.30;99.90;;;;;;5067750;28;20439;-74
2022/06/15 06:26:19;;;;;;;0.60;0.10;;;19.40;99.90;;;;;;5067594;28;20789;-73
2022/06/15 06:28:48;;;;;;;0.60;0.20;;;19.40;99.90;;;;;;5056133;28;20534;-73
2022/06/15 06:31:19;;;;;;;0.60;0.10;;;19.50;99.90;;;;;;5055367;28;21090;-74
2022/06/15 06:33:49;;;;;;;0.60;0.10;;;19.50;99.90;;;;;;5060313;28;20509;-75
2022/06/15 06:36:26;;;;;;;0.60;0.10;;;19.50;99.90;;;;;;5075113;28;20517;-75
2022/06/15 06:38:55;;;;;;;0.60;0.10;;;19.60;99.90;;;;;;5075525;28;20465;-74
2022/06/15 06:41:25;;;;;;;0.60;0.20;;;19.60;99.90;;;;;;5061786;28;20438;-74
2022/06/15 06:43:59;;;;;;;0.70;0.50;;;19.70;99.90;;;;;;5062523;28;20448;-74
2022/06/15 06:46:27;;;;;;;0.60;0.20;;;19.80;99.90;;;;;;5077161;28;20887;-73
2022/06/15 06:48:57;;;;;;;0.60;0.20;;;19.80;99.90;;;;;;5075923;28;20556;-74
2022/06/15 06:51:25;;;;;;;0.70;0.20;;;19.90;99.90;;;;;;5076696;28;20481;-73
2022/06/15 06:53:55;;;;;;;0.60;0.20;;;19.90;99.90;;;;;;5067941;28;20550;-74
2022/06/15 06:56:23;;;;;;;0.60;0.10;;;19.90;99.90;;;;;;5055829;28;20948;-75
2022/06/15 06:58:51;;;;;;;0.60;0.20;;;20.00;99.90;;;;;;5055587;28;20450;-75
2022/06/15 07:01:18;;;;;;;0.60;0.20;;;20.00;99.90;;;;;;5055728;28;20450;-75
2022/06/15 07:03:47;;;;;;;0.60;0.20;;;;;;;;;;5062544;28;20942;-74
2022/06/15 07:06:15;;;;;;;0.60;0.10;;;20.10;99.90;;;;;;5073991;28;20480;-74
2022/06/15 07:08:43;;;;;;;0.60;0.20;;;20.10;99.90;;;;;;5060472;28;20973;-77
2022/06/15 07:11:16;;;;;;;0.60;0.20;;;20.20;99.90;;;;;;5056468;28;20546;-78
2022/06/15 07:13:45;;;;;;;0.60;0.13;;;20.30;99.90;;;;;;5062895;28;20450;-78
2022/06/15 07:16:16;;;;;;;0.70;0.20;;;20.30;99.90;;;;;;5075683;28;20455;-78
2022/06/15 07:18:45;;;;;;;0.60;0.10;;;20.40;99.90;;;;;;5076072;28;20485;-78
2022/06/15 07:21:16;;;;;;;0.70;0.10;;;20.40;99.90;;;;;;5075885;28;20430;-79
2022/06/15 07:23:48;;;;;;;0.60;0.10;;;20.60;99.90;;;;;;5069310;28;20825;-78
2022/06/15 07:26:21;;;;;;;0.70;0.20;;;20.70;99.90;;;;;;5056237;28;20461;-78
2022/06/15 07:28:49;;;;;;;0.60;0.10;;;20.80;99.90;;;;;;5074737;28;20453;-78
2022/06/15 07:31:21;;;;;;;0.60;0.10;;;20.90;99.90;;;;;;5075815;28;20477;-77
2022/06/15 07:33:50;;;;;;;0.60;0.17;;;21.00;99.90;;;;;;5068582;28;20492;-77
2022/06/15 07:36:18;;;;;;;0.70;0.20;;;21.10;99.90;;;;;;5054972;28;20443;-78
2022/06/15 07:38:46;;;;;;;0.70;0.10;;;21.10;99.90;;;;;;5055835;28;20470;-77
2022/06/15 07:41:14;;;;;;;0.70;0.10;;;21.20;99.90;;;;;;5057993;28;20944;-77
2022/06/15 07:43:43;;;;;;;0.70;0.10;;;21.20;99.90;;;;;;5059582;28;21088;-78
2022/06/15 07:46:11;;;;;;;0.70;0.10;;;21.30;99.90;;;;;;5059390;28;20515;-76
2022/06/15 07:51:37;;;;;;;0.70;0.30;;;21.40;99.90;;;;;;5011050;28;20506;-76
2022/06/15 07:54:09;;;;;;;0.63;0.13;;;21.40;99.90;;;;;;5063651;28;21004;-76
2022/06/15 07:56:37;;;;;;;0.70;0.20;;;21.50;99.90;;;;;;5055051;28;20526;-77
2022/06/15 07:59:07;;;;;;;0.70;0.10;;;21.50;99.90;;;;;;5054840;28;20566;-76
2022/06/15 08:01:35;;;;;;;0.70;0.10;;;21.70;99.90;;;;;;5057388;28;20556;-78
2022/06/15 08:04:03;;;;;;;0.70;0.20;;;21.70;99.90;;;;;;5055596;28;20450;-77
2022/06/15 08:06:32;;;;;;;0.70;0.20;;;21.90;99.90;;;;;;5058940;28;20949;-80
2022/06/15 08:09:02;;;;;;;0.70;0.10;;;21.90;99.90;;;;;;5060794;28;20485;-80
2022/06/15 08:11:30;;;;;;;0.70;0.20;;;22.10;99.90;;;;;;5064389;28;20469;-79
2022/06/15 08:13:58;;;;;;;0.70;0.10;;;22.10;99.90;;;;;;5068787;28;20469;-79
2022/06/15 08:16:28;;;;;;;0.70;0.10;;;22.20;99.90;;;;;;5059418;28;20455;-80
2022/06/15 08:18:59;;;;;;;0.70;0.20;;;22.20;99.90;;;;;;5080428;28;20530;-80
2022/06/15 08:21:32;;;;;;;0.70;0.20;;;22.20;99.90;;;;;;5076069;28;20448;-80
2022/06/15 08:24:01;;;;;;;0.70;0.20;;;22.30;99.90;;;;;;5074869;28;20433;-80
2022/06/15 08:26:34;;;;;;;0.70;0.10;;;22.40;99.90;;;;;;5071784;28;20446;-80
2022/06/15 08:29:08;;;;;;;0.70;0.10;;;22.50;99.90;;;;;;5082810;28;20878;-79
2022/06/15 08:31:38;;;;;;;0.70;0.17;;;;;;;;;;5080907;28;20492;-78
2022/06/15 08:34:07;;;;;;;0.70;0.20;;;22.60;99.90;;;;;;5083141;28;20453;-79
2022/06/15 08:36:35;;;;;;;0.70;0.10;;;22.80;99.90;;;;;;5083750;28;20479;-79
2022/06/15 08:39:04;;;;;;;0.70;0.10;;;22.80;99.90;;;;;;5068201;28;20501;-79
2022/06/15 08:41:42;;;;;;;0.70;0.10;;;22.90;99.90;;;;;;5083525;28;20450;-79
2022/06/15 08:44:23;;;;;;;0.70;0.10;;;22.90;99.90;;;;;;5077207;28;20469;-80
2022/06/15 08:47:02;;;;;;;0.70;0.20;;;23.10;99.90;;;;;;5086159;28;20453;-79
2022/06/15 08:49:48;;;;;;;0.70;0.13;;;23.10;99.90;;;;;;5087540;28;20470;-80
2022/06/15 08:52:19;;;;;;;0.70;0.20;;;23.20;99.90;;;;;;5082462;28;20489;-80
2022/06/15 08:54:55;;;;;;;0.70;0.20;;;23.20;99.90;;;;;;5083728;28;20459;-79
2022/06/15 08:57:32;;;;;;;0.70;0.10;;;23.30;99.90;;;;;;5078156;28;20461;-80
2022/06/15 09:00:09;;;;;;;0.70;0.10;;;23.40;99.90;;;;;;5077829;28;20422;-79
2022/06/15 09:02:48;;;;;;;0.70;0.20;;;23.50;99.90;;;;;;5076947;28;20466;-79
2022/06/15 09:05:25;;;;;;;0.70;0.10;;;23.50;99.90;;;;;;5068315;28;20437;-81
2022/06/15 09:08:09;;;;;;;0.80;0.30;;;23.70;99.90;;;;;;5077726;28;20453;-80
2022/06/15 09:10:50;;;;;;;0.70;0.10;;;23.70;99.90;;;;;;5077239;28;20953;-78
2022/06/15 09:13:37;;;;;;;0.70;0.10;;;23.70;99.90;;;;;;5077887;28;20509;-79
2022/06/15 09:16:15;;;;;;;0.70;0.10;;;23.90;99.90;;;;;;5074182;28;20453;-80
2022/06/15 09:18:49;;;;;;;1.03;0.30;;;24.00;99.90;;;;;;5058449;28;20489;-80
2022/06/15 09:21:23;;;;;;;0.70;0.10;;;24.00;99.90;;;;;;5059588;28;20458;-80
2022/06/15 09:23:54;;;;;;;0.70;0.10;;;24.00;99.90;;;;;;5058869;28;20525;-79
2022/06/15 09:26:28;;;;;;;0.70;0.20;;;24.10;99.90;;;;;;5058381;28;20474;-81
2022/06/15 09:29:01;;;;;;;0.70;0.10;;;24.20;99.90;;;;;;5063297;28;20477;-80
2022/06/15 09:31:36;;;;;;;0.70;0.20;;;24.30;99.90;;;;;;5077653;28;20575;-79
2022/06/15 09:34:07;;;;;;;0.70;0.10;;;24.40;99.90;;;;;;5078412;28;20437;-80
2022/06/15 09:36:39;;;;;;;0.70;0.10;;;24.40;99.90;;;;;;5079962;28;20477;-80
2022/06/15 09:39:12;;;;;;;0.70;0.10;;;24.60;99.90;;;;;;5081498;28;20469;-81
2022/06/15 09:41:48;;;;;;;0.70;0.10;;;24.60;99.90;;;;;;5081892;28;20886;-80
2022/06/15 09:44:31;;;;;;;0.70;0.10;;;24.80;99.90;;;;;;5077566;28;20446;-82
2022/06/15 09:47:34;;;;;;;0.70;0.20;;;24.90;99.90;;;;;;5078857;28;20486;-80
2022/06/15 09:50:26;;;;;;;0.93;0.43;;;25.00;99.90;;;;;;5077445;28;20441;-79
2022/06/15 09:53:15;;;;;;;1.00;0.73;;;25.00;99.90;;;;;;5083242;28;20561;-80
2022/06/15 09:55:46;;;;;;;0.70;0.20;;;25.10;99.90;;;;;;5070692;28;20837;-80
2022/06/15 09:58:41;;;;;;;0.70;0.13;;;25.20;99.90;;;;;;5082567;28;20469;-80
2022/06/15 10:01:13;;;;;;;0.70;0.20;;;25.20;99.90;;;;;;5080406;28;20441;-80
2022/06/15 10:03:44;;;;;;;0.70;0.20;;;25.30;99.90;;;;;;5081417;28;20460;-80
2022/06/15 10:06:20;;;;;;;0.70;0.20;;;25.50;99.90;;;;;;5081461;28;20449;-79
2022/06/15 10:08:49;;;;;;;0.70;0.20;;;;;;;;;;5081504;28;20480;-79
2022/06/15 10:11:22;;;;;;;0.70;0.13;;;25.60;99.90;;;;;;5081579;28;20433;-79
2022/06/15 10:13:50;;;;;;;0.70;0.10;;;;;;;;;;5079858;28;20469;-79
2022/06/15 10:16:27;;;;;;;0.70;0.10;;;25.70;99.90;;;;;;5079558;28;20445;-80
2022/06/15 10:18:59;;;;;;;0.70;0.10;;;25.80;99.90;;;;;;5086204;28;20453;-79
2022/06/15 10:21:31;;;;;;;0.70;0.30;;;25.90;99.90;;;;;;5088318;28;20928;-79
2022/06/15 10:24:03;;;;;;;0.70;0.10;;;26.00;99.90;;;;;;5084726;28;20824;-80
2022/06/15 10:26:36;;;;;;;0.70;0.10;;;26.10;99.90;;;;;;5089691;28;20453;-81
2022/06/15 10:29:25;;;;;;;0.70;0.20;;;26.10;99.90;;;;;;5092787;28;20470;-80
2022/06/15 10:32:16;;;;;;;0.70;0.10;;;26.20;99.90;;;;;;5087446;28;20449;-80
2022/06/15 10:35:10;;;;;;;0.70;0.10;;;26.30;99.90;;;;;;5089453;28;20434;-81
2022/06/15 10:37:48;;;;;;;0.70;0.10;;;26.40;99.90;;;;;;5087604;28;20492;-78
2022/06/15 10:40:27;;;;;;;0.70;0.13;;;26.50;99.90;;;;;;5088523;28;20467;-79
2022/06/15 10:43:00;;;;;;;0.70;0.20;;;26.60;99.90;;;;;;5081661;28;20532;-79
2022/06/15 10:45:33;;;;;;;2.50;0.47;;;26.60;99.90;;;;;;5084773;28;20740;-79
2022/06/15 10:48:06;;;;;;;0.70;0.20;;;26.70;99.90;;;;;;5083372;28;20465;-79
2022/06/15 10:50:47;;;;;;;0.70;0.20;;;26.70;99.90;;;;;;5080039;23;20496;-70
2022/06/15 10:53:43;;;;;;;0.70;0.10;;;26.80;99.90;;;;;;5054264;28;20485;-70
2022/06/15 11:02:25;;;;;;;0.70;0.10;;;27.00;99.90;;;;;;5073919;28;20477;-68
2022/06/15 11:04:57;;;;;;;0.70;0.20;;;27.10;99.90;;;;;;5073775;28;20442;-69
2022/06/15 11:07:33;;;;;;;0.70;0.20;;;27.20;99.90;;;;;;5073831;28;20448;-69
2022/06/15 11:10:20;;;;;;;0.73;0.27;;;27.40;99.90;;;;;;5074080;28;20467;-70
2022/06/15 11:12:50;;;;;;;0.70;0.10;;;27.40;99.90;;;;;;5074051;28;20469;-70
2022/06/15 11:18:29;;;;;;;0.70;0.10;;;27.50;99.90;;;;;;5073916;28;20450;-70
2022/06/15 11:21:07;;;;;;;0.70;0.30;;;27.60;99.90;;;;;;5074466;28;20465;-70
2022/06/15 11:23:46;;;;;;;1.10;0.60;;;27.70;99.90;;;;;;5073905;28;20461;-70
2022/06/15 11:29:21;;;;;;;0.70;0.20;;;27.80;99.90;;;;;;5074223;28;20462;-69
2022/06/15 11:32:11;;;;;;;0.70;0.10;;;27.80;99.90;;;;;;5073545;28;20449;-69
2022/06/15 11:34:44;;;;;;;0.70;0.10;;;27.80;99.90;;;;;;5073763;28;20500;-69
2022/06/15 11:37:18;;;;;;;0.70;0.20;;;27.90;99.90;;;;;;5073974;28;20483;-69
2022/06/15 11:39:55;;;;;;;0.70;0.20;;;27.90;99.90;;;;;;5074191;28;20465;-69
2022/06/15 11:42:25;;;;;;;0.70;0.20;;;28.00;99.90;;;;;;5074685;28;20645;-69
2022/06/15 11:44:53;;;;;;;0.70;0.20;;;28.00;99.90;;;;;;5073729;28;20994;-69
2022/06/15 11:47:37;;;;;;;0.70;0.10;;;28.00;99.90;;;;;;5075055;28;20495;-70
2022/06/15 11:50:14;;;;;;;0.70;0.10;;;28.10;99.90;;;;;;5073428;28;20983;-69
2022/06/15 11:52:56;;;;;;;0.70;0.20;;;28.10;99.90;;;;;;5073090;28;20437;-70
2022/06/15 11:55:39;;;;;;;0.70;0.30;;;28.10;99.90;;;;;;5075002;28;20460;-70
2022/06/15 11:58:21;;;;;;;0.70;0.10;;;25.40;99.90;;;;;;5066190;28;20613;-69
2022/06/15 12:00:57;;;;;;;0.70;0.20;;;28.20;99.90;;;;;;5077050;28;20465;-69
2022/06/15 12:03:42;;;;;;;0.70;0.10;;;28.30;99.90;;;;;;5076457;28;20442;-69
2022/06/15 12:06:18;;;;;;;0.70;0.20;;;28.30;99.90;;;;;;5077128;28;20450;-69
2022/06/15 12:08:54;;;;;;;0.70;0.10;;;28.40;99.90;;;;;;5074811;28;20935;-69
2022/06/15 12:14:22;;;;;;;0.70;0.10;;;28.50;99.90;;;;;;5071488;28;20605;-70
2022/06/15 12:16:55;;;;;;;0.70;0.20;;;28.50;99.90;;;;;;5072118;28;20500;-68
2022/06/15 12:19:31;;;;;;;0.70;0.20;;;28.50;99.90;;;;;;5071832;28;20508;-69
2022/06/15 12:22:07;;;;;;;0.70;0.10;;;28.50;99.90;;;;;;5072211;28;20449;-69
2022/06/15 12:24:43;;;;;;;0.70;0.20;;;28.50;99.90;;;;;;5071991;28;20437;-68
2022/06/15 12:27:17;;;;;;;0.70;0.20;;;28.60;99.90;;;;;;5065963;28;20525;-69
2022/06/15 12:29:55;;;;;;;0.70;0.10;;;28.70;99.90;;;;;;5051876;28;20832;-69
2022/06/15 12:32:33;;;;;;;0.70;0.20;;;28.70;99.90;;;;;;5055904;28;20443;-70
2022/06/15 12:35:22;;;;;;;0.70;0.20;;;28.80;99.90;;;;;;5071266;28;20477;-71
2022/06/15 12:37:57;;;;;;;0.70;0.20;;;28.90;99.90;;;;;;5071262;28;20433;-71
2022/06/15 12:40:30;;;;;;;0.70;0.20;;;29.00;99.90;;;;;;5062290;28;20466;-73
2022/06/15 12:43:07;;;;;;;1.33;1.23;;;29.00;99.90;;;;;;5052212;28;20458;-70
2022/06/15 12:45:43;;;;;;;0.70;0.20;;;29.00;99.90;;;;;;5051377;28;20533;-70
2022/06/15 12:48:31;;;;;;;2.33;2.10;;;29.00;99.90;;;;;;5051221;28;20446;-71
2022/06/15 12:51:04;;;;;;;0.70;0.10;;;29.10;99.90;;;;;;5027878;28;1053467;-71
2022/06/15 12:53:41;;;;;;;0.70;0.20;;;29.10;99.90;;;;;;5072977;28;20311;-69
2022/06/15 12:56:21;;;;;;;0.70;0.10;;;29.20;99.90;;;;;;5073176;28;20539;-71
2022/06/15 12:59:00;;;;;;;0.70;0.10;;;29.10;99.90;;;;;;5069038;28;20822;-71
2022/06/15 13:01:36;;;;;;;0.70;0.20;;;29.20;99.90;;;;;;5066663;28;20538;-74
2022/06/15 13:04:12;;;;;;;0.70;0.17;;;29.20;99.90;;;;;;5070616;28;20530;-73
2022/06/15 13:06:42;;;;;;;0.70;0.10;;;29.20;99.90;;;;;;5072541;28;20441;-73
2022/06/15 13:09:20;;;;;;;3.60;2.67;;;29.30;99.90;;;;;;5072429;28;21004;-73
2022/06/15 13:12:05;;;;;;;0.80;0.30;;;29.30;99.90;;;;;;5063602;28;20454;-72
2022/06/15 13:14:37;;;;;;;0.70;0.20;;;29.30;99.90;;;;;;5060025;28;20486;-71
2022/06/15 13:17:11;;;;;;;0.70;0.20;;;29.20;99.90;;;;;;5068890;28;20442;-71
2022/06/15 13:19:43;;;;;;;0.70;0.20;;;29.20;99.90;;;;;;5071350;28;20468;-71
2022/06/15 13:22:14;;;;;;;0.70;0.10;;;29.30;99.90;;;;;;5071273;28;20450;-70
2022/06/15 13:24:52;;;;;;;0.70;0.20;;;29.30;99.90;;;;;;5054065;28;20447;-71
2022/06/15 13:27:25;;;;;;;0.70;0.10;;;29.50;99.90;;;;;;5058464;28;20438;-72
2022/06/15 13:30:10;;;;;;;0.70;0.20;;;29.50;99.90;;;;;;5068396;28;20812;-73
2022/06/15 13:33:00;;;;;;;0.70;0.10;;;29.60;99.90;;;;;;5051601;28;20443;-70
2022/06/15 13:35:32;;;;;;;0.70;0.20;;;29.50;99.90;;;;;;5051547;28;20831;-72
2022/06/15 13:38:14;;;;;;;0.70;0.10;;;29.70;99.90;;;;;;5051410;28;20439;-71
2022/06/15 13:41:11;;;;;;;0.70;0.20;;;29.70;99.90;;;;;;5061255;28;20473;-71